Time;durP1;ratioP1;P1;durP2;ratioP2;P2;SDS_P1;SDS_P2;PMS_P1;PMS_P2;Temp;Humidity;BMP_temperature;BMP_pressure;BME280_temperature;BME280_humidity;BME280_pressure;Samples;Min_cycle;Max_cycle;Signal;HPM_P1;HPM_P2
2023/10/21 00:02:00;;;;;;;18.13;5.87;;;;;;;16.73;67.51;94742.97;4962174;28;20813;-81
2023/10/21 00:04:26;;;;;;;16.17;5.70;;;;;;;16.76;67.96;94784.81;5016008;28;20223;-80
2023/10/21 00:06:51;;;;;;;15.13;5.70;;;;;;;16.52;68.64;94743.72;5008649;28;20227;-82
2023/10/21 00:09:17;;;;;;;14.90;5.37;;;;;;;16.51;69.01;94760.59;5007470;28;20243;-80
2023/10/21 00:11:43;;;;;;;18.07;5.73;;;;;;;16.53;70.14;94786.75;4980580;28;20226;-80
2023/10/21 00:14:08;;;;;;;13.10;5.63;;;;;;;16.39;69.43;94751.09;4980692;28;20286;-80
2023/10/21 00:16:34;;;;;;;13.67;5.50;;;;;;;16.32;70.37;94747.81;5019562;28;20233;-78
2023/10/21 00:19:00;;;;;;;16.40;5.60;;;;;;;16.43;69.69;94776.03;5014153;28;20322;-81
2023/10/21 00:21:25;;;;;;;15.43;5.70;;;;;;;16.48;69.70;94778.75;5010179;28;20287;-82
2023/10/21 00:23:51;;;;;;;15.13;6.03;;;;;;;16.52;69.50;94774.63;5017740;28;20223;-85
2023/10/21 00:26:17;;;;;;;16.17;5.90;;;;;;;16.48;69.13;94752.34;5000503;28;20258;-81
2023/10/21 00:28:42;;;;;;;16.97;6.00;;;;;;;16.43;69.51;94768.09;5011970;28;20230;-80
2023/10/21 00:31:08;;;;;;;11.70;5.77;;;;;;;16.52;68.87;94777.25;4982828;28;20561;-81
2023/10/21 00:33:33;;;;;;;16.77;6.27;;;;;;;16.37;70.21;94776.97;4985223;28;20242;-79
2023/10/21 00:35:59;;;;;;;11.93;5.80;;;;;;;16.44;69.06;94781.06;4996196;28;20230;-78
2023/10/21 00:38:24;;;;;;;16.13;5.87;;;;;;;16.49;69.23;94782.97;4967453;28;20234;-82
2023/10/21 00:40:55;;;;;;;18.33;6.20;;;;;;;16.45;69.72;94795.88;4985041;28;20241;-80
2023/10/21 00:43:34;;;;;;;17.23;6.13;;;;;;;16.16;70.93;94765.25;4984555;28;20242;-83
2023/10/21 00:46:10;;;;;;;11.17;6.10;;;;;;;16.14;71.70;94789.25;4984167;28;20227;-83
2023/10/21 00:48:36;;;;;;;13.80;5.27;;;;;;;16.30;70.73;94813.28;4967405;28;20229;-80
2023/10/21 00:51:02;;;;;;;14.00;5.90;;;;;;;16.29;71.10;94811.69;5005555;28;20238;-81
2023/10/21 00:53:27;;;;;;;21.03;6.10;;;;;;;16.15;71.07;94774.19;4992627;28;20227;-81
2023/10/21 00:55:53;;;;;;;14.10;5.77;;;;;;;16.22;70.33;94793.34;4988143;28;20230;-80
2023/10/21 00:58:19;;;;;;;16.47;6.00;;;;;;;16.36;69.47;94810.50;5036592;28;20426;-81
2023/10/21 01:00:44;;;;;;;15.87;5.83;;;;;;;16.50;69.43;94834.78;4951492;28;20733;-87
2023/10/21 01:03:10;;;;;;;16.03;6.03;;;;;;;16.35;69.72;94811.53;4979711;28;20948;-78
2023/10/21 01:05:36;;;;;;;14.33;5.77;;;;;;;16.18;70.82;94790.38;5001441;28;20354;-82
2023/10/21 01:08:02;;;;;;;16.07;5.70;;;;;;;16.21;70.63;94827.91;4992559;28;20234;-81
2023/10/21 01:10:28;;;;;;;18.10;5.70;;;;;;;15.83;72.40;94759.91;4973097;28;20734;-82
2023/10/21 01:12:54;;;;;;;17.07;6.00;;;;;;;16.08;71.33;94850.94;5010949;28;20234;-84
2023/10/21 01:15:19;;;;;;;17.77;5.43;;;;;;;15.95;71.10;94758.78;4995409;28;20238;-81
2023/10/21 01:17:51;;;;;;;13.13;5.03;;;;;;;16.03;71.57;94805.13;4991676;28;20226;-81
2023/10/21 01:20:17;;;;;;;18.07;5.93;;;;;;;16.17;70.36;94849.50;5016117;28;20223;-71
2023/10/21 01:22:46;;;;;;;14.00;5.43;;;;;;;16.27;70.39;94760.94;4988584;28;20231;-71
2023/10/21 01:25:11;;;;;;;13.53;5.37;;;;;;;16.37;69.92;94803.38;5001975;28;20322;-71
2023/10/21 01:27:37;;;;;;;13.63;5.07;;;;;;;16.51;68.67;94831.94;4998814;28;20386;-70
2023/10/21 01:30:05;;;;;;;16.90;4.83;;;;;;;16.57;68.06;94838.13;4999654;28;20985;-67
2023/10/21 01:32:32;;;;;;;13.73;5.07;;;;;;;16.35;68.30;94803.63;4981752;28;20263;-68
2023/10/21 01:34:57;;;;;;;13.97;5.23;;;;;;;16.35;68.72;94790.41;5015313;28;20239;-71
2023/10/21 01:37:22;;;;;;;13.13;5.13;;;;;;;16.45;69.09;94837.34;5028772;28;20624;-70
2023/10/21 01:39:48;;;;;;;12.47;5.33;;;;;;;16.23;69.40;94783.59;5013968;28;20258;-69
2023/10/21 01:42:13;;;;;;;15.70;4.90;;;;;;;16.22;69.32;94774.84;4982086;28;20289;-71
2023/10/21 01:44:39;;;;;;;15.23;4.87;;;;;;;16.19;69.59;94825.53;5000578;28;20238;-71
2023/10/21 01:47:05;;;;;;;10.43;4.60;;;;;;;16.45;68.06;94777.38;5008470;28;20230;-70
2023/10/21 01:49:31;;;;;;;15.20;5.03;;;;;;;16.56;67.23;94786.28;5003498;28;20862;-70
2023/10/21 01:51:57;;;;;;;13.93;5.00;;;;;;;16.67;67.05;94817.94;4951363;28;20234;-70
2023/10/21 01:54:22;;;;;;;13.30;4.80;;;;;;;16.62;67.27;94790.63;4965931;28;20241;-69
2023/10/21 01:56:48;;;;;;;13.47;5.03;;;;;;;16.65;67.50;94803.34;4982409;28;20224;-69
2023/10/21 01:59:14;;;;;;;16.23;5.03;;;;;;;16.57;68.34;94798.47;4998829;28;20234;-70
2023/10/21 02:01:40;;;;;;;13.93;5.10;;;;;;;16.41;69.04;94799.22;5036139;28;20235;-69
2023/10/21 02:04:06;;;;;;;12.73;5.03;;;;;;;16.37;70.30;94806.00;5004189;28;20238;-69
2023/10/21 02:06:31;;;;;;;12.57;5.10;;;;;;;16.41;69.00;94838.84;4979085;28;20254;-70
2023/10/21 02:08:57;;;;;;;12.30;5.17;;;;;;;16.23;69.46;94800.22;5010017;28;20238;-71
2023/10/21 02:11:24;;;;;;;15.47;5.00;;;;;;;16.05;70.72;94752.88;5002719;28;20231;-70
2023/10/21 02:13:50;;;;;;;11.50;4.70;;;;;;;16.12;70.28;94812.44;5001312;28;20242;-70
2023/10/21 02:16:15;;;;;;;14.63;5.13;;;;;;;16.23;70.25;94824.00;5010182;28;20227;-71
2023/10/21 02:18:41;;;;;;;16.13;5.13;;;;;;;16.32;69.58;94812.00;4971538;28;20223;-69
2023/10/21 02:21:07;;;;;;;14.03;5.10;;;;;;;15.98;70.59;94770.72;5008786;28;20219;-70
2023/10/21 02:23:33;;;;;;;15.07;5.03;;;;;;;16.01;71.04;94805.38;4995170;28;20226;-70
2023/10/21 02:26:00;;;;;;;12.83;5.50;;;;;;;15.91;71.56;94828.13;4982614;28;20227;-70
2023/10/21 02:28:25;;;;;;;14.07;5.00;;;;;;;16.08;71.02;94834.28;5021224;28;20360;-71
2023/10/21 02:30:51;;;;;;;13.47;5.17;;;;;;;16.15;71.01;94813.81;4984248;28;21217;-71
2023/10/21 02:33:16;;;;;;;16.93;5.67;;;;;;;15.82;71.67;94803.94;4977379;28;20310;-71
2023/10/21 02:35:42;;;;;;;13.97;5.23;;;;;;;15.75;72.88;94813.84;5005045;28;20274;-70
2023/10/21 02:38:08;;;;;;;14.93;5.27;;;;;;;15.88;72.89;94845.22;4983787;28;20226;-71
2023/10/21 02:40:34;;;;;;;15.93;5.37;;;;;;;15.67;73.32;94835.31;4952474;28;20829;-70
2023/10/21 02:42:59;;;;;;;13.17;5.00;;;;;;;15.79;72.61;94836.09;4998453;28;20750;-70
2023/10/21 02:45:26;;;;;;;12.97;5.13;;;;;;;15.71;73.58;94836.47;4992064;28;20227;-70
2023/10/21 02:47:52;;;;;;;16.73;5.30;;;;;;;15.82;72.95;94846.19;5002253;28;20296;-70
2023/10/21 02:50:17;;;;;;;15.63;5.10;;;;;;;15.63;73.29;94810.44;4985193;28;20262;-70
2023/10/21 02:52:43;;;;;;;16.27;5.10;;;;;;;15.70;73.59;94837.47;4978709;28;20339;-71
2023/10/21 02:55:11;;;;;;;13.47;5.33;;;;;;;15.62;73.59;94853.66;5003458;28;20235;-70
2023/10/21 02:57:37;;;;;;;16.63;5.27;;;;;;;15.51;74.51;94836.03;4983174;28;20226;-69
2023/10/21 03:00:05;;;;;;;14.40;5.43;;;;;;;15.30;75.72;94857.69;4953287;28;20917;-70
2023/10/21 03:02:30;;;;;;;13.93;5.43;;;;;;;15.53;74.35;94857.69;4984778;28;21055;-71
2023/10/21 03:04:56;;;;;;;13.20;5.40;;;;;;;15.52;74.52;94855.31;5008800;28;20266;-70
2023/10/21 03:07:21;;;;;;;14.73;5.20;;;;;;;15.58;74.85;94860.44;5006840;28;20241;-70
2023/10/21 03:09:47;;;;;;;13.97;5.43;;;;;;;15.58;74.25;94849.88;4996119;28;20231;-70
2023/10/21 03:12:12;;;;;;;14.97;5.67;;;;;;;15.44;74.97;94866.97;5024876;28;20226;-70
2023/10/21 03:14:39;;;;;;;12.77;5.30;;;;;;;15.36;75.05;94862.03;5012551;28;20295;-70
2023/10/21 03:17:05;;;;;;;15.67;5.60;;;;;;;15.27;76.21;94847.59;4998586;28;20711;-70
2023/10/21 03:19:30;;;;;;;15.00;5.40;;;;;;;15.34;75.71;94851.72;4974429;28;20243;-70
2023/10/21 03:21:56;;;;;;;13.83;5.80;;;;;;;15.29;76.11;94841.06;5010971;28;20276;-70
2023/10/21 03:24:22;;;;;;;13.07;5.40;;;;;;;15.21;77.17;94865.13;4985846;28;20226;-70
2023/10/21 03:26:48;;;;;;;13.63;5.60;;;;;;;15.13;76.92;94856.75;4969125;28;20991;-69
2023/10/21 03:29:13;;;;;;;8.90;5.20;;;;;;;15.28;77.01;94873.75;4971452;28;20690;-70
2023/10/21 03:31:39;;;;;;;16.00;5.77;;;;;;;14.89;78.06;94842.78;4990610;28;20218;-69
2023/10/21 03:34:04;;;;;;;12.10;5.07;;;;;;;14.98;78.04;94830.84;5003172;28;20349;-69
2023/10/21 03:36:30;;;;;;;13.33;5.50;;;;;;;15.14;77.82;94863.66;4997738;28;20230;-70
2023/10/21 03:38:55;;;;;;;17.07;5.50;;;;;;;15.11;78.14;94864.91;5004574;28;20223;-70
2023/10/21 03:41:23;;;;;;;18.53;5.97;;;;;;;15.12;77.20;94853.31;4989258;28;20693;-70
2023/10/21 03:43:50;;;;;;;11.93;5.30;;;;;;;15.00;77.81;94855.16;4983186;28;20246;-70
2023/10/21 03:46:15;;;;;;;13.87;5.33;;;;;;;14.93;78.06;94846.53;4990707;28;20311;-70
2023/10/21 03:48:41;;;;;;;16.20;5.50;;;;;;;14.65;80.50;94857.75;5013128;28;20233;-70
2023/10/21 03:51:10;;;;;;;15.37;5.50;;;;;;;14.75;79.51;94857.19;4992065;28;20226;-70
2023/10/21 03:53:35;;;;;;;16.80;5.57;;;;;;;14.58;80.14;94830.69;5000652;28;20345;-69
2023/10/21 03:56:01;;;;;;;16.63;5.40;;;;;;;14.91;78.89;94855.72;4975967;28;20317;-70
2023/10/21 03:58:27;;;;;;;16.20;5.50;;;;;;;14.81;78.68;94829.91;4971025;28;20368;-70
2023/10/21 04:00:54;;;;;;;18.00;5.80;;;;;;;14.89;79.43;94863.03;4960581;28;20242;-70
2023/10/21 04:03:20;;;;;;;16.97;5.80;;;;;;;14.94;78.16;94850.00;4984496;28;20776;-70
2023/10/21 04:05:45;;;;;;;15.53;5.60;;;;;;;14.89;78.74;94863.84;5007557;28;20727;-69
2023/10/21 04:08:11;;;;;;;14.20;5.50;;;;;;;14.78;79.10;94825.13;4991246;28;20268;-70
2023/10/21 04:10:36;;;;;;;19.37;5.70;;;;;;;14.70;79.66;94865.78;5010212;28;20821;-70
2023/10/21 04:13:03;;;;;;;17.07;5.47;;;;;;;14.84;77.90;94847.91;4996619;28;20232;-71
2023/10/21 04:15:29;;;;;;;18.13;5.33;;;;;;;14.91;78.12;94829.34;4984028;28;20234;-71
2023/10/21 04:17:55;;;;;;;15.27;4.97;;;;;;;15.17;76.07;94881.63;4993482;28;20572;-71
2023/10/21 04:20:21;;;;;;;14.50;5.57;;;;;;;15.18;75.27;94833.16;4999934;28;20315;-70
2023/10/21 04:22:47;;;;;;;18.00;5.17;;;;;;;15.15;76.29;94837.06;5004475;28;20230;-70
2023/10/21 04:25:12;;;;;;;14.87;5.23;;;;;;;15.17;76.27;94826.25;4992949;28;20868;-70
2023/10/21 04:27:38;;;;;;;13.60;5.20;;;;;;;15.26;76.12;94832.81;4984632;28;20267;-70
2023/10/21 04:30:04;;;;;;;15.10;5.67;;;;;;;15.27;75.72;94848.41;4966204;28;20489;-70
2023/10/21 04:32:30;;;;;;;14.43;5.57;;;;;;;15.39;75.37;94857.13;5016376;28;20715;-70
2023/10/21 04:34:57;;;;;;;16.27;5.10;;;;;;;15.44;74.50;94862.53;4992390;28;20242;-70
2023/10/21 04:37:22;;;;;;;14.63;5.87;;;;;;;15.38;76.31;94891.63;4995676;28;20726;-69
2023/10/21 04:39:48;;;;;;;13.57;5.20;;;;;;;15.18;76.02;94857.69;5027453;28;20235;-70
2023/10/21 04:42:13;;;;;;;15.87;5.20;;;;;;;14.84;78.17;94848.72;5006040;28;20239;-70
2023/10/21 04:44:39;;;;;;;15.67;5.17;;;;;;;15.06;76.89;94891.16;5013858;28;20610;-70
2023/10/21 04:47:04;;;;;;;16.70;5.67;;;;;;;14.89;77.01;94855.13;5003309;28;20284;-70
2023/10/21 04:49:30;;;;;;;16.93;5.70;;;;;;;14.83;78.23;94891.13;5004481;28;20295;-70
2023/10/21 04:51:56;;;;;;;22.30;5.90;;;;;;;15.04;76.72;94880.03;5013254;28;20234;-70
2023/10/21 04:54:21;;;;;;;16.27;5.70;;;;;;;15.04;76.99;94880.03;4974527;28;20246;-72
2023/10/21 04:56:47;;;;;;;18.90;5.83;;;;;;;15.12;76.24;94907.88;4997338;28;20276;-69
2023/10/21 04:59:12;;;;;;;12.20;5.40;;;;;;;14.76;78.00;94885.94;4996415;28;20231;-71
2023/10/21 05:01:38;;;;;;;14.37;5.63;;;;;;;14.95;77.54;94891.91;5003074;28;20252;-70
2023/10/21 05:04:04;;;;;;;14.73;5.97;;;;;;;14.92;77.55;94897.66;4983014;28;20280;-70
2023/10/21 05:06:29;;;;;;;20.17;5.67;;;;;;;15.02;76.59;94915.56;4978971;28;20227;-70
2023/10/21 05:08:55;;;;;;;14.60;5.40;;;;;;;14.74;78.06;94893.25;4996447;28;20288;-70
2023/10/21 05:11:21;;;;;;;9.73;5.20;;;;;;;14.94;77.31;94934.31;4981152;28;20773;-71
2023/10/21 05:13:46;;;;;;;17.07;5.30;;;;;;;14.92;76.96;94902.13;4982150;28;20234;-70
2023/10/21 05:16:12;;;;;;;16.70;5.20;;;;;;;15.02;77.30;94934.00;5011997;28;20234;-71
2023/10/21 05:18:38;;;;;;;12.07;5.30;;;;;;;15.17;76.63;94947.53;4994942;28;20239;-70
2023/10/21 05:21:07;;;;;;;14.67;5.33;;;;;;;15.15;76.44;94942.50;4968549;28;20230;-71
2023/10/21 05:23:33;;;;;;;9.67;5.33;;;;;;;15.25;75.39;94920.84;5001479;28;20351;-71
2023/10/21 05:25:58;;;;;;;16.97;5.77;;;;;;;15.31;75.19;94927.84;4950667;28;21085;-69
2023/10/21 05:28:24;;;;;;;15.93;5.30;;;;;;;15.33;75.89;94952.19;5022223;28;20229;-70
2023/10/21 05:30:50;;;;;;;16.33;5.40;;;;;;;15.13;76.77;94920.84;4995560;28;20742;-71
2023/10/21 05:33:16;;;;;;;17.03;5.13;;;;;;;15.22;76.63;94940.56;4999612;28;20608;-71
2023/10/21 05:35:41;;;;;;;13.63;5.70;;;;;;;15.23;76.58;94949.28;4974902;28;20319;-71
2023/10/21 05:38:07;;;;;;;20.97;5.50;;;;;;;15.32;76.26;94942.66;5007302;28;20227;-71
2023/10/21 05:40:32;;;;;;;16.53;5.63;;;;;;;15.36;76.57;94960.41;4984236;28;20738;-70
2023/10/21 05:42:58;;;;;;;19.43;6.03;;;;;;;15.34;76.48;94973.03;5001222;28;20238;-71
2023/10/21 05:45:23;;;;;;;20.57;6.00;;;;;;;15.36;76.64;94962.25;4991258;28;20292;-71
2023/10/21 05:47:49;;;;;;;14.97;6.43;;;;;;;15.47;76.48;94964.16;5011393;28;20396;-71
2023/10/21 05:50:19;;;;;;;14.03;6.03;;;;;;;15.54;75.52;94967.47;4984609;28;20242;-70
2023/10/21 05:52:45;;;;;;;15.40;5.47;;;;;;;15.35;76.50;94956.19;4994152;28;20216;-70
2023/10/21 05:55:11;;;;;;;20.00;5.67;;;;;;;15.49;76.81;94970.00;4999475;28;20253;-72
2023/10/21 05:57:36;;;;;;;19.53;5.93;;;;;;;15.60;75.97;94977.09;4980555;28;20230;-70
2023/10/21 06:00:03;;;;;;;20.60;5.97;;;;;;;15.65;76.09;94971.94;4985036;28;20269;-70
2023/10/21 06:02:28;;;;;;;19.90;6.17;;;;;;;15.65;76.40;94982.50;4983939;28;20310;-70
2023/10/21 06:04:54;;;;;;;23.20;6.20;;;;;;;15.80;75.92;94971.50;4979083;28;20617;-70
2023/10/21 06:07:20;;;;;;;18.20;6.20;;;;;;;15.88;75.77;94974.56;5005101;28;20266;-70
2023/10/21 06:09:45;;;;;;;17.87;5.87;;;;;;;15.89;75.36;94981.47;5009471;28;20235;-70
2023/10/21 06:12:10;;;;;;;17.53;5.87;;;;;;;16.05;75.87;94999.25;4984215;28;20712;-71
2023/10/21 06:14:36;;;;;;;18.13;5.93;;;;;;;16.12;73.09;94972.75;5007771;28;20250;-70
2023/10/21 06:17:02;;;;;;;16.53;5.90;;;;;;;16.26;73.21;94979.38;4965300;28;20231;-70
2023/10/21 06:19:27;;;;;;;19.67;5.57;;;;;;;16.38;73.10;94974.06;4977355;28;20235;-70
2023/10/21 06:21:54;;;;;;;18.07;5.73;;;;;;;16.39;73.13;94986.22;4972730;28;20235;-71
2023/10/21 06:24:19;;;;;;;16.03;5.60;;;;;;;16.45;73.77;94987.94;4965527;28;20239;-70
2023/10/21 06:26:45;;;;;;;18.83;5.80;;;;;;;16.53;71.45;94975.19;5000194;28;20223;-69
2023/10/21 06:29:10;;;;;;;16.33;5.70;;;;;;;16.61;70.87;94995.16;4987384;28;20235;-73
2023/10/21 06:31:36;;;;;;;13.83;5.57;;;;;;;16.58;71.72;94988.50;4982287;28;20224;-70
2023/10/21 06:34:01;;;;;;;13.53;5.40;;;;;;;16.63;72.52;94979.84;4985525;28;20239;-70
2023/10/21 06:36:27;;;;;;;25.23;6.10;;;;;;;16.61;73.50;94977.47;4932633;28;20939;-69
2023/10/21 06:38:52;;;;;;;18.83;5.63;;;;;;;16.66;72.34;94985.50;4997103;28;20239;-72
2023/10/21 06:41:18;;;;;;;14.43;5.33;;;;;;;16.78;71.21;94988.91;4977134;28;20227;-70
2023/10/21 06:43:43;;;;;;;15.60;5.50;;;;;;;16.98;69.13;94985.03;4987205;28;20228;-69
2023/10/21 06:46:09;;;;;;;20.13;5.70;;;;;;;16.93;70.91;94991.03;4993826;28;20259;-70
2023/10/21 06:48:35;;;;;;;23.53;6.03;;;;;;;17.09;70.91;94984.16;5006632;28;20267;-70
2023/10/21 06:51:00;;;;;;;16.07;5.80;;;;;;;17.13;69.28;94988.72;5033650;28;20235;-69
2023/10/21 06:53:29;;;;;;;20.73;6.57;;;;;;;17.25;68.70;94980.72;4989658;28;20270;-70
2023/10/21 06:55:55;;;;;;;17.27;5.93;;;;;;;17.24;69.27;94987.84;4961151;28;20318;-70
2023/10/21 06:58:20;;;;;;;16.90;6.37;;;;;;;17.21;68.67;94992.84;4933324;28;20319;-69
2023/10/21 07:00:46;;;;;;;16.23;6.03;;;;;;;17.32;69.79;95005.19;4948924;28;20285;-70
2023/10/21 07:03:12;;;;;;;17.97;6.30;;;;;;;17.30;68.66;94988.75;4965691;28;20239;-71
2023/10/21 07:05:37;;;;;;;22.17;6.63;;;;;;;17.42;67.87;95000.88;5000668;28;20256;-69
2023/10/21 07:08:04;;;;;;;25.97;7.43;;;;;;;17.44;67.99;94997.97;4968007;28;20227;-69
2023/10/21 07:10:30;;;;;;;17.43;7.03;;;;;;;17.60;66.00;94983.19;4972651;28;20237;-69
2023/10/21 07:12:57;;;;;;;23.73;7.03;;;;;;;17.64;66.40;94979.00;5005347;28;20222;-69
2023/10/21 07:15:29;;;;;;;21.67;6.43;;;;;;;17.60;67.04;94989.25;5000402;28;20995;-70
2023/10/21 07:17:55;;;;;;;18.70;6.13;;;;;;;17.61;65.91;94998.00;4967359;28;20231;-71
2023/10/21 07:20:21;;;;;;;20.43;5.93;;;;;;;17.80;64.94;94980.84;5014530;28;20322;-69
2023/10/21 07:22:48;;;;;;;13.33;5.47;;;;;;;17.85;65.42;94988.84;5000301;28;20959;-70
2023/10/21 07:25:13;;;;;;;17.00;5.67;;;;;;;17.83;66.47;94990.94;4983011;28;20223;-70
2023/10/21 07:27:39;;;;;;;16.63;5.80;;;;;;;17.87;65.55;94981.47;5013289;28;20229;-70
2023/10/21 07:30:05;;;;;;;19.03;6.00;;;;;;;17.92;65.76;94998.25;4972762;28;20230;-71
2023/10/21 07:32:30;;;;;;;18.50;6.20;;;;;;;18.00;65.91;94991.75;4970643;28;20853;-72
2023/10/21 07:34:56;;;;;;;15.77;5.30;;;;;;;18.17;64.83;94987.22;5005276;28;20234;-70
2023/10/21 07:37:21;;;;;;;17.43;5.80;;;;;;;18.21;65.71;94984.88;5007801;28;20250;-71
2023/10/21 07:39:47;;;;;;;25.13;6.17;;;;;;;18.39;64.60;94979.28;5004135;28;21057;-71
2023/10/21 07:42:14;;;;;;;23.27;5.47;;;;;;;18.48;63.99;94972.53;4951618;28;20620;-70
2023/10/21 07:44:40;;;;;;;18.50;5.83;;;;;;;18.51;64.89;94982.66;4986846;28;20685;-70
2023/10/21 07:47:06;;;;;;;17.33;5.33;;;;;;;18.38;65.36;94988.28;4959097;28;20247;-70
2023/10/21 07:49:32;;;;;;;16.27;5.07;;;;;;;18.72;62.55;94995.09;4994556;28;20923;-70
2023/10/21 07:51:57;;;;;;;17.40;5.13;;;;;;;18.91;61.83;94996.38;4975320;28;20234;-70
2023/10/21 07:54:23;;;;;;;14.23;5.10;;;;;;;19.01;62.47;94988.50;5000184;28;20251;-70
2023/10/21 07:56:50;;;;;;;12.40;4.93;;;;;;;18.90;61.94;95000.06;4974133;28;20222;-70
2023/10/21 07:59:15;;;;;;;19.93;5.20;;;;;;;19.17;60.81;94981.50;4993130;28;20318;-70
2023/10/21 08:01:41;;;;;;;17.80;5.23;;;;;;;19.30;61.27;94987.19;5011869;28;20310;-70
2023/10/21 08:04:07;;;;;;;22.17;5.50;;;;;;;19.50;60.66;94983.97;4987031;28;20237;-71
2023/10/21 08:06:34;;;;;;;16.13;5.27;;;;;;;19.32;61.49;94989.63;4991503;28;20251;-71
2023/10/21 08:09:00;;;;;;;16.83;5.50;;;;;;;19.29;61.29;95000.75;4987802;28;20316;-70
2023/10/21 08:11:26;;;;;;;12.00;4.97;;;;;;;19.60;61.02;94992.03;5001396;28;20714;-70
2023/10/21 08:13:51;;;;;;;17.37;5.60;;;;;;;19.57;60.76;94987.22;5016467;28;20235;-70
2023/10/21 08:16:17;;;;;;;17.20;5.07;;;;;;;19.81;59.45;94991.13;4951035;28;20257;-70
2023/10/21 08:18:43;;;;;;;16.30;5.23;;;;;;;19.85;59.88;94988.72;4980429;28;20253;-71
2023/10/21 08:21:08;;;;;;;12.93;5.10;;;;;;;20.15;60.06;94979.13;4966903;28;20231;-71
2023/10/21 08:23:34;;;;;;;14.23;4.70;;;;;;;20.26;59.98;94989.81;4992036;28;20262;-70
2023/10/21 08:26:00;;;;;;;20.40;4.90;;;;;;;20.22;60.35;94984.25;4973020;28;20746;-70
2023/10/21 08:28:25;;;;;;;18.47;5.00;;;;;;;20.13;60.27;94980.44;5001779;28;20238;-69
2023/10/21 08:30:51;;;;;;;16.83;4.63;;;;;;;20.28;59.95;94982.38;5011872;28;20230;-69
2023/10/21 08:33:16;;;;;;;18.13;4.83;;;;;;;20.48;59.57;94967.34;4994211;28;20243;-70
2023/10/21 08:35:42;;;;;;;13.47;4.67;;;;;;;20.48;59.25;94969.22;4990434;28;20625;-71
2023/10/21 08:38:08;;;;;;;18.17;5.00;;;;;;;20.78;57.52;94983.41;4987047;28;20319;-70
2023/10/21 08:40:38;;;;;;;19.40;4.43;;;;;;;20.73;57.05;94969.28;5001248;28;20284;-86
2023/10/21 08:43:04;;;;;;;15.80;4.63;;;;;;;20.86;57.61;94981.31;5013915;28;20278;-85
2023/10/21 08:45:31;;;;;;;15.70;4.20;;;;;;;21.03;56.51;94966.75;4991056;28;20231;-88
2023/10/21 08:47:57;;;;;;;21.30;4.50;;;;;;;21.42;57.27;94956.44;5014430;28;20714;-87
2023/10/21 08:50:24;;;;;;;17.23;4.30;;;;;;;21.48;55.59;94966.03;4994888;28;20631;-86
2023/10/21 08:52:50;;;;;;;16.57;4.23;;;;;;;21.70;51.86;94955.91;5013332;28;20894;-90
2023/10/21 08:55:15;;;;;;;20.30;4.00;;;;;;;22.00;49.76;94960.41;4993609;28;20227;-86
2023/10/21 08:57:41;;;;;;;14.87;4.20;;;;;;;21.76;51.24;94965.47;5018393;28;20291;-81
2023/10/21 09:00:10;;;;;;;17.77;4.30;;;;;;;21.83;51.50;94967.91;4985940;28;20346;-80
2023/10/21 09:02:35;;;;;;;17.00;3.70;;;;;;;22.02;49.45;94966.28;4996271;28;20283;-78
2023/10/21 09:05:10;;;;;;;19.00;3.80;;;;;;;22.34;46.00;94963.28;4999025;28;20230;-81
2023/10/21 09:07:45;;;;;;;20.40;3.53;;;;;;;22.71;46.16;94958.38;4983489;28;20305;-80
2023/10/21 09:10:11;;;;;;;16.07;3.83;;;;;;;22.79;46.31;94958.59;4995489;28;20711;-77
2023/10/21 09:12:37;;;;;;;15.27;3.70;;;;;;;22.50;46.13;94946.94;5004561;28;20227;-77
2023/10/21 09:15:05;;;;;;;18.60;3.53;;;;;;;23.08;42.05;94925.88;5001000;28;20262;-81
2023/10/21 09:17:37;;;;;;;18.00;3.90;;;;;;;22.82;45.75;94948.44;4986095;28;20329;-80
2023/10/21 09:20:11;;;;;;;10.73;3.10;;;;;;;23.52;40.92;94939.22;5022683;28;20235;-81
2023/10/21 09:22:37;;;;;;;15.20;3.87;;;;;;;23.31;42.34;94946.53;4967559;28;20226;-80
2023/10/21 09:25:20;;;;;;;13.83;3.53;;;;;;;23.25;40.60;94961.00;4997254;28;20738;-81
2023/10/21 09:27:53;;;;;;;15.73;3.40;;;;;;;23.12;41.50;94937.63;4984020;28;20301;-81
2023/10/21 09:30:20;;;;;;;14.00;3.43;;;;;;;23.42;41.18;94935.56;5005362;28;20335;-79
2023/10/21 09:32:49;;;;;;;18.90;3.50;;;;;;;23.37;40.97;94951.63;4977932;28;20702;-80
2023/10/21 09:35:25;;;;;;;15.13;3.53;;;;;;;23.44;40.77;94937.94;5003714;28;20325;-80
2023/10/21 09:37:51;;;;;;;17.37;3.37;;;;;;;23.74;40.45;94934.22;4988686;28;20287;-79
2023/10/21 09:40:17;;;;;;;17.20;3.40;;;;;;;23.72;39.31;94931.81;4971546;28;20246;-79
2023/10/21 09:42:42;;;;;;;18.07;3.30;;;;;;;23.76;36.85;94938.22;5010414;28;20227;-80
2023/10/21 09:45:12;;;;;;;15.88;3.42;;;;;;;23.77;38.63;94945.16;5004460;28;20720;-80
2023/10/21 09:47:41;;;;;;;17.60;3.30;;;;;;;24.00;37.44;94930.25;4987984;28;20280;-80
2023/10/21 09:50:11;;;;;;;15.35;3.47;;;;;;;24.21;37.16;94937.00;5006761;28;20238;-78
2023/10/21 09:52:44;;;;;;;15.00;3.10;;;;;;;24.54;36.96;94925.38;4999880;28;20230;-81
2023/10/21 09:55:10;;;;;;;21.20;3.55;;;;;;;24.87;35.29;94923.66;5012792;28;20245;-83
2023/10/21 09:57:36;;;;;;;16.93;3.33;;;;;;;25.15;33.78;94924.63;4991969;28;20950;-80
2023/10/21 10:00:03;;;;;;;17.50;3.27;;;;;;;25.02;34.41;94920.78;4973754;28;20227;-79
2023/10/21 10:02:28;;;;;;;17.93;3.20;;;;;;;25.12;35.37;94917.94;4999028;28;20234;-82
2023/10/21 10:04:54;;;;;;;18.17;3.13;;;;;;;25.47;30.81;94923.88;4978929;28;20804;-81
2023/10/21 10:07:20;;;;;;;19.75;3.58;;;;;;;25.50;30.91;94924.09;5003302;28;20219;-79
2023/10/21 10:09:45;;;;;;;28.73;3.60;;;;;;;25.12;33.73;94934.03;4974228;28;20269;-80
2023/10/21 10:12:54;;;;;;;12.87;3.27;;;;;;;24.95;32.58;94908.81;4974012;28;20325;-78
2023/10/21 10:15:37;;;;;;;23.42;3.28;;;;;;;25.40;30.78;94908.13;5004794;28;20239;-79
2023/10/21 10:18:07;;;;;;;28.23;3.40;;;;;;;25.68;32.16;94887.59;5004545;28;20310;-79
2023/10/21 10:20:32;;;;;;;20.52;3.53;;;;;;;25.62;30.98;94888.78;4986447;28;20318;-80
2023/10/21 10:23:07;;;;;;;16.83;3.00;;;;;;;25.88;30.25;94884.56;4992363;28;20326;-83
2023/10/21 10:25:43;;;;;;;24.27;3.30;;;;;;;26.38;28.53;94864.84;4978793;28;20286;-80
2023/10/21 10:28:09;;;;;;;26.17;3.25;;;;;;;26.51;27.92;94869.41;4971697;28;20226;-82
2023/10/21 10:30:37;;;;;;;16.25;3.10;;;;;;;26.45;28.64;94899.34;5021357;28;20258;-81
2023/10/21 10:33:06;;;;;;;17.83;3.53;;;;;;;25.82;29.90;94899.16;4996204;28;20935;-82
2023/10/21 10:35:40;;;;;;;20.48;3.45;;;;;;;25.92;29.50;94881.00;4986990;28;20239;-83
2023/10/21 10:38:24;;;;;;;21.00;3.17;;;;;;;26.21;28.65;94872.69;5019283;28;20329;-70
2023/10/21 10:41:15;;;;;;;23.42;3.40;;;;;;;26.22;29.51;94882.34;5018700;28;20230;-70
2023/10/21 10:43:44;;;;;;;18.00;3.50;;;;;;;26.20;30.54;94881.06;4996110;28;20241;-71
2023/10/21 10:46:10;;;;;;;16.60;3.20;;;;;;;26.38;30.12;94885.53;4971479;28;20233;-71
2023/10/21 10:48:36;;;;;;;19.58;3.20;;;;;;;26.22;29.76;94884.25;5003325;28;20815;-71
2023/10/21 10:51:10;;;;;;;17.77;3.30;;;;;;;26.30;30.36;94889.69;5010324;28;20259;-70
2023/10/21 10:53:36;;;;;;;21.05;3.88;;;;;;;26.43;29.41;94888.13;4990830;28;20227;-71
2023/10/21 10:56:01;;;;;;;19.08;3.60;;;;;;;26.61;29.29;94887.19;5018250;28;20265;-71
2023/10/21 10:58:27;;;;;;;20.77;3.22;;;;;;;26.78;27.77;94891.97;4965030;28;20288;-70
2023/10/21 11:00:52;;;;;;;26.45;3.40;;;;;;;26.69;28.11;94895.34;4993056;28;20893;-70
2023/10/21 11:03:27;;;;;;;25.52;3.70;;;;;;;26.91;27.88;94870.47;4987500;28;20274;-71
2023/10/21 11:05:55;;;;;;;21.80;3.33;;;;;;;26.86;27.80;94893.94;4980071;28;20251;-70
2023/10/21 11:08:21;;;;;;;44.30;3.80;;;;;;;27.25;26.32;94875.34;5002745;28;20258;-70
2023/10/21 11:10:47;;;;;;;22.75;3.40;;;;;;;27.32;27.09;94889.16;4969445;28;20223;-69
2023/10/21 11:13:12;;;;;;;20.50;3.58;;;;;;;27.38;27.30;94887.94;4967963;28;20258;-71
2023/10/21 11:15:44;;;;;;;15.68;3.10;;;;;;;27.21;28.90;94898.53;5011547;28;20234;-71
2023/10/21 11:18:12;;;;;;;20.52;3.50;;;;;;;27.16;28.51;94891.38;4984739;28;20238;-71
2023/10/21 11:20:48;;;;;;;21.23;3.20;;;;;;;27.05;27.33;94881.16;5000173;28;20223;-71
2023/10/21 11:23:14;;;;;;;16.42;3.50;;;;;;;27.18;27.80;94885.69;5001735;28;20227;-71